Terminal Aerodrome Forecast
Issued by NWS

Home | Current Version | Previous Version | Graphics & Text | Print | Product List | Glossary On
Versions: 1 2 3 4 5 6 7 8 9 10 11 12 13 14 15 16
000
FTUS43 KMPX 012334
TAFRNH
TAF
KRNH 012334Z 0200/0224 14002KT P6SM FEW040 SCT250
     FM020800 00000KT P6SM SCT040 SCT150
     FM021600 16005KT P6SM FEW050 SCT250=

USA.gov is the U.S. government's official web portal to all federal, state and local government web resources and services.